Coral Leaf — PHNI — position and weather

sailwx.info

Track history (hours):
 
Tides and Currents Weather Stations Pressure Air Temp Water Temp Dewpoint Dewpoint Depression Visibility Wind Speed Wind Dir Waves Ship Positions

Coral Leaf

Last reported at 2017-Jan-17 18:34 UTC. Time now 2017-Jan-17 19:18 UTC.
Position N 51°24' E 003°21'.

Length 108 m; draft 5 m.

Type: Tanker. MMSI: 244036000.

Date/timePositionNaut miles runAvg speedWind from/ knotsBaromVisibWave heightAir tempDewpointWater temp
2017-Jan-17 18:34N 51°24' E 003°21'1312.9
2017-Jan-17 17:33N 51°26' E 003°41'1010.1
2017-Jan-17 16:33N 51°24' E 003°58'9 8.6
2017-Jan-17 15:33N 51°24' E 004°11'9 9.0
2017-Jan-17 14:34N 51°16' E 004°18'2 1.8
2017-Jan-17 13:34N 51°15' E 004°20'0 0.0
2017-Jan-17 12:34N 51°15' E 004°20'0 0.0
2017-Jan-17 11:34N 51°15' E 004°20'0 0.0
2017-Jan-17 10:34N 51°15' E 004°20'0 0.0
2017-Jan-17 09:34N 51°15' E 004°20'0 0.0
2017-Jan-17 08:34N 51°15' E 004°20'0 0.0
2017-Jan-17 07:34N 51°15' E 004°20'0 0.0
2017-Jan-17 06:31N 51°15' E 004°20'0 0.0
2017-Jan-17 05:28N 51°15' E 004°20'0 0.0
2017-Jan-17 04:34N 51°15' E 004°20'0 0.0
2017-Jan-17 03:31N 51°15' E 004°20'0 0.0
2017-Jan-17 02:34N 51°15' E 004°20'0 0.0
2017-Jan-17 01:34N 51°15' E 004°20'0 0.0
2017-Jan-17 00:31N 51°15' E 004°20'0 0.0
2017-Jan-16 23:31N 51°15' E 004°20'0 0.0
2017-Jan-16 22:31N 51°15' E 004°20'0 0.0
2017-Jan-16 21:34N 51°15' E 004°20'0 0.0
2017-Jan-16 20:31N 51°15' E 004°20'0 0.0
2017-Jan-16 19:34N 51°15' E 004°20'0 0.0
2017-Jan-16 18:31N 51°15' E 004°20'0 0.1
2017-Jan-16 17:34N 51°15' E 004°20'7 6.5
2017-Jan-16 16:34N 51°21' E 004°16'1211.9
2017-Jan-16 15:33N 51°25' E 003°58'1312.8
2017-Jan-16 14:33N 51°26' E 003°37'1414.0
2017-Jan-16 13:33N 51°36' E 003°22'1313.5
2017-Jan-16 12:33N 51°49' E 003°17'40714.5
2017-Jan-15 08:32N 57°54' E 008°34'1414.0
2017-Jan-15 07:33N 58°04' E 008°50'1514.8
2017-Jan-15 06:33N 58°15' E 009°09'4514.2
2017-Jan-15 03:24N 58°55' E 009°47'8 9.7
2017-Jan-15 02:33N 59°03' E 009°41'  
2017-Jan-12 02:32N 59°01' E 009°45'1010.1
2017-Jan-12 01:33N 58°51' E 009°45'6 5.5
2017-Jan-12 00:28N 58°52' E 009°56'6 6.7
2017-Jan-11 23:33N 58°47' E 009°50'7 5.5
2017-Jan-11 22:19N 58°41' E 009°57'7 9.7
2017-Jan-11 21:33N 58°39' E 010°10'1212.5
2017-Jan-11 20:34N 58°30' E 010°27'1714.3
2017-Jan-11 19:23N 58°17' E 010°47'1113.2
2017-Jan-11 18:33N 58°08' E 010°59'1211.8
2017-Jan-11 17:33N 57°59' E 011°13'1010.0
2017-Jan-11 16:33N 57°52' E 011°27'8 8.2
2017-Jan-11 15:34N 57°56' E 011°40'10 9.3
2017-Jan-11 14:29N 58°05' E 011°48'1 0.4
2017-Jan-11 12:28N 58°05' E 011°49'2 0.1
2017-Jan-10 22:34N 58°04' E 011°47'9 9.1
2017-Jan-10 21:34N 57°56' E 011°40'10 9.6
2017-Jan-10 20:33N 57°52' E 011°23'1313.4
2017-Jan-10 19:34N 58°03' E 011°08'1413.8
2017-Jan-10 18:31N 58°15' E 010°52'1512.6
2017-Jan-10 17:22N 58°26' E 010°34'1112.0
2017-Jan-10 16:24N 58°35' E 010°21'1011.5
2017-Jan-10 15:33N 58°43' E 010°09'1110.5
2017-Jan-10 14:33N 58°51' E 009°57'11 9.7
2017-Jan-10 13:25N 59°01' E 009°46'  
Track history (hours):
 
Tides and Currents Weather Stations Pressure Air Temp Water Temp Dewpoint Dewpoint Depression Visibility Wind Speed Wind Dir Waves Ship Positions

Coral Leaf

Last reported at 2017-Jan-17 18:34 UTC. Time now 2017-Jan-17 19:18 UTC.
Position N 51°24' E 003°21'.

Length 108 m; draft 5 m.

Type: Tanker. MMSI: 244036000.

Date/timePositionNaut miles runAvg speedWind from/ knotsBaromVisibWave heightAir tempDewpointWater temp
2017-Jan-17 18:34N 51°24' E 003°21'1312.9
2017-Jan-17 17:33N 51°26' E 003°41'1010.1
2017-Jan-17 16:33N 51°24' E 003°58'9 8.6
2017-Jan-17 15:33N 51°24' E 004°11'9 9.0
2017-Jan-17 14:34N 51°16' E 004°18'2 1.8
2017-Jan-17 13:34N 51°15' E 004°20'0 0.0
2017-Jan-17 12:34N 51°15' E 004°20'0 0.0
2017-Jan-17 11:34N 51°15' E 004°20'0 0.0
2017-Jan-17 10:34N 51°15' E 004°20'0 0.0
2017-Jan-17 09:34N 51°15' E 004°20'0 0.0
2017-Jan-17 08:34N 51°15' E 004°20'0 0.0
2017-Jan-17 07:34N 51°15' E 004°20'0 0.0
2017-Jan-17 06:31N 51°15' E 004°20'0 0.0
2017-Jan-17 05:28N 51°15' E 004°20'0 0.0
2017-Jan-17 04:34N 51°15' E 004°20'0 0.0
2017-Jan-17 03:31N 51°15' E 004°20'0 0.0
2017-Jan-17 02:34N 51°15' E 004°20'0 0.0
2017-Jan-17 01:34N 51°15' E 004°20'0 0.0
2017-Jan-17 00:31N 51°15' E 004°20'0 0.0
2017-Jan-16 23:31N 51°15' E 004°20'0 0.0
2017-Jan-16 22:31N 51°15' E 004°20'0 0.0
2017-Jan-16 21:34N 51°15' E 004°20'0 0.0
2017-Jan-16 20:31N 51°15' E 004°20'0 0.0
2017-Jan-16 19:34N 51°15' E 004°20'0 0.0
2017-Jan-16 18:31N 51°15' E 004°20'0 0.1
2017-Jan-16 17:34N 51°15' E 004°20'7 6.5
2017-Jan-16 16:34N 51°21' E 004°16'1211.9
2017-Jan-16 15:33N 51°25' E 003°58'1312.8
2017-Jan-16 14:33N 51°26' E 003°37'1414.0
2017-Jan-16 13:33N 51°36' E 003°22'1313.5
2017-Jan-16 12:33N 51°49' E 003°17'40714.5
2017-Jan-15 08:32N 57°54' E 008°34'1414.0
2017-Jan-15 07:33N 58°04' E 008°50'1514.8
2017-Jan-15 06:33N 58°15' E 009°09'4514.2
2017-Jan-15 03:24N 58°55' E 009°47'8 9.7
2017-Jan-15 02:33N 59°03' E 009°41'  
2017-Jan-12 02:32N 59°01' E 009°45'1010.1
2017-Jan-12 01:33N 58°51' E 009°45'6 5.5
2017-Jan-12 00:28N 58°52' E 009°56'6 6.7
2017-Jan-11 23:33N 58°47' E 009°50'7 5.5
2017-Jan-11 22:19N 58°41' E 009°57'7 9.7
2017-Jan-11 21:33N 58°39' E 010°10'1212.5
2017-Jan-11 20:34N 58°30' E 010°27'1714.3
2017-Jan-11 19:23N 58°17' E 010°47'1113.2
2017-Jan-11 18:33N 58°08' E 010°59'1211.8
2017-Jan-11 17:33N 57°59' E 011°13'1010.0
2017-Jan-11 16:33N 57°52' E 011°27'8 8.2
2017-Jan-11 15:34N 57°56' E 011°40'10 9.3
2017-Jan-11 14:29N 58°05' E 011°48'1 0.4
2017-Jan-11 12:28N 58°05' E 011°49'2 0.1
2017-Jan-10 22:34N 58°04' E 011°47'9 9.1
2017-Jan-10 21:34N 57°56' E 011°40'10 9.6
2017-Jan-10 20:33N 57°52' E 011°23'1313.4
2017-Jan-10 19:34N 58°03' E 011°08'1413.8
2017-Jan-10 18:31N 58°15' E 010°52'1512.6
2017-Jan-10 17:22N 58°26' E 010°34'1112.0
2017-Jan-10 16:24N 58°35' E 010°21'1011.5
2017-Jan-10 15:33N 58°43' E 010°09'1110.5
2017-Jan-10 14:33N 58°51' E 009°57'11 9.7
2017-Jan-10 13:25N 59°01' E 009°46'  

Dump ship's entire track history